sensor_id;sensor_type;location;lat;lon;timestamp;pressure;altitude;pressure_sealevel;temperature;humidity
72465;BME280;60471;52.150;4.508;2022-09-09T00:05:12;100443.56;;;16.24;81.41
72465;BME280;60471;52.150;4.508;2022-09-09T00:07:49;100454.84;;;16.28;81.20
72465;BME280;60471;52.150;4.508;2022-09-09T00:10:26;100435.69;;;16.23;81.26
72465;BME280;60471;52.150;4.508;2022-09-09T00:15:28;100437.88;;;16.18;81.64
72465;BME280;60471;52.150;4.508;2022-09-09T00:18:14;100428.78;;;16.09;82.38
72465;BME280;60471;52.150;4.508;2022-09-09T00:20:56;100440.28;;;16.10;82.25
72465;BME280;60471;52.150;4.508;2022-09-09T00:23:31;100438.94;;;16.15;81.93
72465;BME280;60471;52.150;4.508;2022-09-09T00:26:35;100433.84;;;16.01;82.49
72465;BME280;60471;52.150;4.508;2022-09-09T00:31:38;100441.97;;;16.11;82.01
72465;BME280;60471;52.150;4.508;2022-09-09T00:34:13;100438.94;;;16.15;82.01
72465;BME280;60471;52.150;4.508;2022-09-09T00:36:45;100436.28;;;16.15;81.94
72465;BME280;60471;52.150;4.508;2022-09-09T00:39:37;100439.78;;;16.16;82.19
72465;BME280;60471;52.150;4.508;2022-09-09T00:44:51;100430.09;;;16.04;82.61
72465;BME280;60471;52.150;4.508;2022-09-09T00:47:50;100422.81;;;16.06;82.69
72465;BME280;60471;52.150;4.508;2022-09-09T00:56:18;100426.94;;;15.99;83.38
72465;BME280;60471;52.150;4.508;2022-09-09T00:58:58;100425.72;;;15.91;83.80
72465;BME280;60471;52.150;4.508;2022-09-09T01:01:29;100427.81;;;15.99;83.12
72465;BME280;60471;52.150;4.508;2022-09-09T01:03:56;100430.88;;;15.82;83.93
72465;BME280;60471;52.150;4.508;2022-09-09T01:06:36;100424.56;;;15.72;84.45
72465;BME280;60471;52.150;4.508;2022-09-09T01:09:12;100428.09;;;15.83;84.08
72465;BME280;60471;52.150;4.508;2022-09-09T01:11:55;100423.66;;;15.95;83.49
72465;BME280;60471;52.150;4.508;2022-09-09T01:14:39;100428.50;;;15.90;83.80
72465;BME280;60471;52.150;4.508;2022-09-09T01:17:11;100419.78;;;15.88;83.89
72465;BME280;60471;52.150;4.508;2022-09-09T01:27:43;100403.81;;;15.77;83.86
72465;BME280;60471;52.150;4.508;2022-09-09T01:30:18;100405.63;;;15.87;83.68
72465;BME280;60471;52.150;4.508;2022-09-09T01:32:47;100411.09;;;15.97;83.25
72465;BME280;60471;52.150;4.508;2022-09-09T01:35:32;100404.19;;;16.06;82.70
72465;BME280;60471;52.150;4.508;2022-09-09T01:38:04;100402.50;;;15.93;82.98
72465;BME280;60471;52.150;4.508;2022-09-09T01:40:31;100399.94;;;15.92;83.10
72465;BME280;60471;52.150;4.508;2022-09-09T01:42:58;100398.00;;;15.94;82.73
72465;BME280;60471;52.150;4.508;2022-09-09T01:45:24;100397.03;;;15.95;82.55
72465;BME280;60471;52.150;4.508;2022-09-09T01:47:54;100395.38;;;16.05;82.15
72465;BME280;60471;52.150;4.508;2022-09-09T01:50:22;100394.16;;;15.98;82.31
72465;BME280;60471;52.150;4.508;2022-09-09T01:52:53;100385.81;;;15.91;82.72
72465;BME280;60471;52.150;4.508;2022-09-09T01:55:39;100393.91;;;15.90;82.53
72465;BME280;60471;52.150;4.508;2022-09-09T01:58:24;100389.88;;;15.84;82.62
72465;BME280;60471;52.150;4.508;2022-09-09T02:04:21;100377.81;;;15.80;82.89
72465;BME280;60471;52.150;4.508;2022-09-09T02:06:53;100379.75;;;15.78;82.88
72465;BME280;60471;52.150;4.508;2022-09-09T02:09:23;100375.25;;;15.68;83.19
72465;BME280;60471;52.150;4.508;2022-09-09T02:12:19;100381.00;;;15.61;83.45
72465;BME280;60471;52.150;4.508;2022-09-09T02:14:50;100377.78;;;15.69;83.33
72465;BME280;60471;52.150;4.508;2022-09-09T02:17:28;100372.19;;;15.61;83.20
72465;BME280;60471;52.150;4.508;2022-09-09T02:20:08;100376.22;;;15.67;83.27
72465;BME280;60471;52.150;4.508;2022-09-09T02:22:39;100373.44;;;15.68;82.97
72465;BME280;60471;52.150;4.508;2022-09-09T02:25:12;100371.91;;;15.53;83.69
72465;BME280;60471;52.150;4.508;2022-09-09T02:27:44;100368.88;;;15.46;83.87
72465;BME280;60471;52.150;4.508;2022-09-09T02:30:13;100368.00;;;15.46;83.77
72465;BME280;60471;52.150;4.508;2022-09-09T02:32:42;100357.47;;;15.33;84.08
72465;BME280;60471;52.150;4.508;2022-09-09T02:35:13;100354.97;;;15.43;83.83
72465;BME280;60471;52.150;4.508;2022-09-09T02:37:44;100356.22;;;15.61;82.89
72465;BME280;60471;52.150;4.508;2022-09-09T02:40:15;100351.75;;;15.61;82.87
72465;BME280;60471;52.150;4.508;2022-09-09T02:42:44;100350.53;;;15.54;83.04
72465;BME280;60471;52.150;4.508;2022-09-09T02:45:15;100345.66;;;15.48;83.29
72465;BME280;60471;52.150;4.508;2022-09-09T02:47:54;100349.56;;;15.55;83.06
72465;BME280;60471;52.150;4.508;2022-09-09T02:50:35;100342.97;;;15.37;83.28
72465;BME280;60471;52.150;4.508;2022-09-09T02:53:20;100340.44;;;15.35;83.24
72465;BME280;60471;52.150;4.508;2022-09-09T02:55:58;100342.47;;;15.32;83.30
72465;BME280;60471;52.150;4.508;2022-09-09T02:58:30;100344.66;;;15.38;83.55
72465;BME280;60471;52.150;4.508;2022-09-09T03:00:56;100347.16;;;15.28;83.19
72465;BME280;60471;52.150;4.508;2022-09-09T03:03:24;100348.75;;;15.31;83.37
72465;BME280;60471;52.150;4.508;2022-09-09T03:05:50;100346.84;;;15.33;83.23
72465;BME280;60471;52.150;4.508;2022-09-09T03:08:16;100347.69;;;15.33;83.04
72465;BME280;60471;52.150;4.508;2022-09-09T03:10:43;100353.00;;;15.33;83.01
72465;BME280;60471;52.150;4.508;2022-09-09T03:13:09;100343.03;;;15.24;83.27
72465;BME280;60471;52.150;4.508;2022-09-09T03:15:36;100347.41;;;15.25;83.24
72465;BME280;60471;52.150;4.508;2022-09-09T03:18:04;100350.78;;;15.27;83.22
72465;BME280;60471;52.150;4.508;2022-09-09T03:20:30;100347.78;;;15.32;83.05
72465;BME280;60471;52.150;4.508;2022-09-09T03:22:57;100340.88;;;15.29;83.02
72465;BME280;60471;52.150;4.508;2022-09-09T03:25:24;100331.22;;;15.28;83.30
72465;BME280;60471;52.150;4.508;2022-09-09T03:27:52;100341.16;;;15.37;82.51
72465;BME280;60471;52.150;4.508;2022-09-09T03:30:22;100332.00;;;15.42;82.40
72465;BME280;60471;52.150;4.508;2022-09-09T03:32:49;100335.09;;;15.35;82.71
72465;BME280;60471;52.150;4.508;2022-09-09T03:35:15;100325.16;;;15.26;82.88
72465;BME280;60471;52.150;4.508;2022-09-09T03:37:41;100332.44;;;15.35;82.68
72465;BME280;60471;52.150;4.508;2022-09-09T03:40:08;100325.03;;;15.28;82.91
72465;BME280;60471;52.150;4.508;2022-09-09T03:42:37;100326.28;;;15.35;82.28
72465;BME280;60471;52.150;4.508;2022-09-09T03:45:08;100321.94;;;15.34;82.36
72465;BME280;60471;52.150;4.508;2022-09-09T03:47:36;100325.19;;;15.37;82.06
72465;BME280;60471;52.150;4.508;2022-09-09T03:50:04;100331.34;;;15.27;82.65
72465;BME280;60471;52.150;4.508;2022-09-09T03:52:35;100320.25;;;15.33;82.57
72465;BME280;60471;52.150;4.508;2022-09-09T03:55:07;100324.69;;;15.21;82.90
72465;BME280;60471;52.150;4.508;2022-09-09T03:57:35;100327.22;;;15.23;83.01
72465;BME280;60471;52.150;4.508;2022-09-09T04:00:06;100332.88;;;15.18;83.10
72465;BME280;60471;52.150;4.508;2022-09-09T04:02:33;100328.78;;;15.25;82.55
72465;BME280;60471;52.150;4.508;2022-09-09T04:04:59;100323.25;;;15.28;82.49
72465;BME280;60471;52.150;4.508;2022-09-09T04:07:26;100319.13;;;15.24;82.74
72465;BME280;60471;52.150;4.508;2022-09-09T04:09:54;100320.84;;;15.36;82.12
72465;BME280;60471;52.150;4.508;2022-09-09T04:12:20;100314.09;;;15.32;82.26
72465;BME280;60471;52.150;4.508;2022-09-09T04:14:48;100307.41;;;15.27;82.22
72465;BME280;60471;52.150;4.508;2022-09-09T04:17:14;100314.28;;;15.29;82.29
72465;BME280;60471;52.150;4.508;2022-09-09T04:19:41;100305.59;;;15.27;81.92
72465;BME280;60471;52.150;4.508;2022-09-09T04:22:08;100302.44;;;15.22;82.30
72465;BME280;60471;52.150;4.508;2022-09-09T04:24:34;100296.53;;;15.30;81.83
72465;BME280;60471;52.150;4.508;2022-09-09T04:27:01;100294.25;;;15.25;82.19
72465;BME280;60471;52.150;4.508;2022-09-09T04:29:27;100299.09;;;15.31;81.75
72465;BME280;60471;52.150;4.508;2022-09-09T04:31:53;100296.28;;;15.22;82.17
72465;BME280;60471;52.150;4.508;2022-09-09T04:34:19;100297.97;;;15.23;82.00
72465;BME280;60471;52.150;4.508;2022-09-09T04:36:45;100296.53;;;15.30;81.76
72465;BME280;60471;52.150;4.508;2022-09-09T04:39:12;100295.22;;;15.35;81.45
72465;BME280;60471;52.150;4.508;2022-09-09T04:41:38;100291.69;;;15.24;82.06
72465;BME280;60471;52.150;4.508;2022-09-09T04:44:04;100290.97;;;15.22;81.95
72465;BME280;60471;52.150;4.508;2022-09-09T04:46:31;100298.59;;;15.26;81.96
72465;BME280;60471;52.150;4.508;2022-09-09T04:48:57;100291.59;;;15.25;81.77
72465;BME280;60471;52.150;4.508;2022-09-09T04:51:23;100289.88;;;15.24;81.62
72465;BME280;60471;52.150;4.508;2022-09-09T04:53:49;100286.22;;;15.14;82.00
72465;BME280;60471;52.150;4.508;2022-09-09T04:56:17;100282.53;;;15.28;81.43
72465;BME280;60471;52.150;4.508;2022-09-09T04:58:44;100280.09;;;15.25;81.53
72465;BME280;60471;52.150;4.508;2022-09-09T05:01:18;100281.31;;;15.21;81.79
72465;BME280;60471;52.150;4.508;2022-09-09T05:03:46;100282.16;;;15.21;81.77
72465;BME280;60471;52.150;4.508;2022-09-09T05:06:18;100279.38;;;15.23;81.86
72465;BME280;60471;52.150;4.508;2022-09-09T05:08:46;100279.25;;;15.24;81.78
72465;BME280;60471;52.150;4.508;2022-09-09T05:11:24;100277.06;;;15.18;81.99
72465;BME280;60471;52.150;4.508;2022-09-09T05:13:53;100281.75;;;15.15;81.94
72465;BME280;60471;52.150;4.508;2022-09-09T05:16:20;100283.81;;;15.11;82.13
72465;BME280;60471;52.150;4.508;2022-09-09T05:18:47;100280.75;;;15.04;82.33
72465;BME280;60471;52.150;4.508;2022-09-09T05:21:14;100287.50;;;14.97;82.92
72465;BME280;60471;52.150;4.508;2022-09-09T05:23:42;100281.38;;;15.08;82.43
72465;BME280;60471;52.150;4.508;2022-09-09T05:26:12;100278.09;;;15.04;82.41
72465;BME280;60471;52.150;4.508;2022-09-09T05:28:40;100276.91;;;15.08;82.54
72465;BME280;60471;52.150;4.508;2022-09-09T05:31:08;100271.75;;;15.18;82.36
72465;BME280;60471;52.150;4.508;2022-09-09T05:33:39;100272.38;;;15.22;81.74
72465;BME280;60471;52.150;4.508;2022-09-09T05:36:12;100279.63;;;15.20;81.95
72465;BME280;60471;52.150;4.508;2022-09-09T05:38:40;100269.47;;;15.25;81.77
72465;BME280;60471;52.150;4.508;2022-09-09T05:41:08;100262.75;;;15.43;81.21
72465;BME280;60471;52.150;4.508;2022-09-09T05:43:37;100254.16;;;15.51;81.00
72465;BME280;60471;52.150;4.508;2022-09-09T05:46:09;100267.63;;;15.60;80.36
72465;BME280;60471;52.150;4.508;2022-09-09T05:48:41;100272.22;;;15.70;80.15
72465;BME280;60471;52.150;4.508;2022-09-09T05:51:11;100274.97;;;15.57;80.64
72465;BME280;60471;52.150;4.508;2022-09-09T05:53:39;100282.69;;;15.49;80.99
72465;BME280;60471;52.150;4.508;2022-09-09T05:56:10;100280.16;;;15.47;81.44
72465;BME280;60471;52.150;4.508;2022-09-09T05:58:38;100284.88;;;15.55;81.38
72465;BME280;60471;52.150;4.508;2022-09-09T06:01:11;100287.72;;;15.64;81.15
72465;BME280;60471;52.150;4.508;2022-09-09T06:03:42;100292.63;;;15.58;81.51
72465;BME280;60471;52.150;4.508;2022-09-09T06:06:12;100287.34;;;15.69;81.38
72465;BME280;60471;52.150;4.508;2022-09-09T06:08:41;100288.91;;;15.83;81.24
72465;BME280;60471;52.150;4.508;2022-09-09T06:11:18;100295.81;;;15.74;81.61
72465;BME280;60471;52.150;4.508;2022-09-09T06:13:45;100285.66;;;15.90;81.41
72465;BME280;60471;52.150;4.508;2022-09-09T06:16:16;100288.31;;;15.90;81.30
72465;BME280;60471;52.150;4.508;2022-09-09T06:18:44;100291.47;;;15.96;81.33
72465;BME280;60471;52.150;4.508;2022-09-09T06:21:21;100293.91;;;15.87;81.23
72465;BME280;60471;52.150;4.508;2022-09-09T06:23:55;100290.38;;;15.98;80.83
72465;BME280;60471;52.150;4.508;2022-09-09T06:26:23;100285.91;;;15.99;80.44
72465;BME280;60471;52.150;4.508;2022-09-09T06:28:55;100286.16;;;15.96;80.92
72465;BME280;60471;52.150;4.508;2022-09-09T06:31:25;100278.16;;;16.07;80.43
72465;BME280;60471;52.150;4.508;2022-09-09T06:33:56;100289.75;;;16.17;79.98
72465;BME280;60471;52.150;4.508;2022-09-09T06:36:26;100292.31;;;16.18;79.46
72465;BME280;60471;52.150;4.508;2022-09-09T06:39:04;100293.16;;;16.30;79.09
72465;BME280;60471;52.150;4.508;2022-09-09T06:41:32;100294.22;;;16.16;80.17
72465;BME280;60471;52.150;4.508;2022-09-09T06:43:59;100296.41;;;16.34;78.88
72465;BME280;60471;52.150;4.508;2022-09-09T06:46:28;100289.75;;;16.39;78.49
72465;BME280;60471;52.150;4.508;2022-09-09T06:48:58;100283.41;;;16.51;77.96
72465;BME280;60471;52.150;4.508;2022-09-09T06:51:27;100289.63;;;16.41;78.12
72465;BME280;60471;52.150;4.508;2022-09-09T06:53:58;100287.19;;;16.27;78.58
72465;BME280;60471;52.150;4.508;2022-09-09T06:56:37;100301.25;;;16.40;78.28
72465;BME280;60471;52.150;4.508;2022-09-09T06:59:08;100287.31;;;16.36;78.41
72465;BME280;60471;52.150;4.508;2022-09-09T07:01:37;100298.34;;;16.32;78.63
72465;BME280;60471;52.150;4.508;2022-09-09T07:04:07;100316.47;;;16.38;78.15
72465;BME280;60471;52.150;4.508;2022-09-09T07:06:37;100294.31;;;16.37;78.63
72465;BME280;60471;52.150;4.508;2022-09-09T07:09:06;100304.22;;;16.46;78.34
72465;BME280;60471;52.150;4.508;2022-09-09T07:11:39;100298.78;;;16.48;77.92
72465;BME280;60471;52.150;4.508;2022-09-09T07:14:08;100299.75;;;16.47;77.94
72465;BME280;60471;52.150;4.508;2022-09-09T07:16:35;100283.53;;;16.61;76.95
72465;BME280;60471;52.150;4.508;2022-09-09T07:19:03;100286.19;;;16.61;77.11
72465;BME280;60471;52.150;4.508;2022-09-09T07:21:32;100290.88;;;16.69;77.02
72465;BME280;60471;52.150;4.508;2022-09-09T07:23:59;100288.09;;;16.59;77.48
72465;BME280;60471;52.150;4.508;2022-09-09T07:26:28;100279.63;;;16.76;77.21
72465;BME280;60471;52.150;4.508;2022-09-09T07:28:56;100283.25;;;16.75;77.18
72465;BME280;60471;52.150;4.508;2022-09-09T07:31:35;100299.25;;;16.64;77.25
72465;BME280;60471;52.150;4.508;2022-09-09T07:34:03;100287.91;;;16.51;77.77
72465;BME280;60471;52.150;4.508;2022-09-09T07:36:32;100286.44;;;16.47;77.97
72465;BME280;60471;52.150;4.508;2022-09-09T07:39:05;100292.81;;;16.67;77.23
72465;BME280;60471;52.150;4.508;2022-09-09T07:41:36;100296.84;;;16.61;77.30
72465;BME280;60471;52.150;4.508;2022-09-09T07:44:15;100292.97;;;16.54;77.92
72465;BME280;60471;52.150;4.508;2022-09-09T07:46:43;100294.44;;;16.47;77.97
72465;BME280;60471;52.150;4.508;2022-09-09T07:49:11;100299.75;;;16.47;77.85
72465;BME280;60471;52.150;4.508;2022-09-09T07:51:40;100303.38;;;16.46;77.64
72465;BME280;60471;52.150;4.508;2022-09-09T07:54:11;100302.91;;;16.52;77.76
72465;BME280;60471;52.150;4.508;2022-09-09T07:56:40;100292.13;;;16.53;77.76
72465;BME280;60471;52.150;4.508;2022-09-09T07:59:07;100298.19;;;16.44;78.08
72465;BME280;60471;52.150;4.508;2022-09-09T08:01:40;100301.81;;;16.43;78.66
72465;BME280;60471;52.150;4.508;2022-09-09T08:04:10;100297.72;;;16.39;77.96
72465;BME280;60471;52.150;4.508;2022-09-09T08:06:46;100301.31;;;16.49;77.74
72465;BME280;60471;52.150;4.508;2022-09-09T08:09:15;100299.59;;;16.60;77.58
72465;BME280;60471;52.150;4.508;2022-09-09T08:11:42;100290.75;;;16.70;77.36
72465;BME280;60471;52.150;4.508;2022-09-09T08:14:10;100303.84;;;16.62;77.03
72465;BME280;60471;52.150;4.508;2022-09-09T08:16:40;100290.88;;;16.69;77.24
72465;BME280;60471;52.150;4.508;2022-09-09T08:19:08;100292.81;;;16.67;77.39
72465;BME280;60471;52.150;4.508;2022-09-09T08:21:36;100299.50;;;16.61;77.56
72465;BME280;60471;52.150;4.508;2022-09-09T08:24:06;100298.25;;;16.76;76.76
72465;BME280;60471;52.150;4.508;2022-09-09T08:26:40;100289.84;;;16.92;76.83
72465;BME280;60471;52.150;4.508;2022-09-09T08:29:13;100287.97;;;16.83;76.98
72465;BME280;60471;52.150;4.508;2022-09-09T08:31:45;100291.81;;;16.79;76.44
72465;BME280;60471;52.150;4.508;2022-09-09T08:34:14;100286.59;;;16.89;76.64
72465;BME280;60471;52.150;4.508;2022-09-09T08:36:43;100284.56;;;16.81;76.24
72465;BME280;60471;52.150;4.508;2022-09-09T08:39:12;100293.88;;;16.87;76.71
72465;BME280;60471;52.150;4.508;2022-09-09T08:50:35;100295.59;;;16.76;77.19
72465;BME280;60471;52.150;4.508;2022-09-09T08:53:29;100304.56;;;16.75;76.97
72465;BME280;60471;52.150;4.508;2022-09-09T08:56:10;100297.69;;;16.62;77.80
72465;BME280;60471;52.150;4.508;2022-09-09T08:58:47;100290.00;;;16.79;77.15
72465;BME280;60471;52.150;4.508;2022-09-09T09:04:19;100309.16;;;16.85;77.25
72465;BME280;60471;52.150;4.508;2022-09-09T09:09:59;100312.88;;;16.82;77.03
72465;BME280;60471;52.150;4.508;2022-09-09T09:12:46;100308.34;;;16.73;77.58
72465;BME280;60471;52.150;4.508;2022-09-09T09:15:23;100309.00;;;16.86;77.00
72465;BME280;60471;52.150;4.508;2022-09-09T09:17:52;100310.34;;;16.80;77.26
72465;BME280;60471;52.150;4.508;2022-09-09T09:20:29;100309.16;;;16.85;77.80
72465;BME280;60471;52.150;4.508;2022-09-09T09:23:21;100321.28;;;16.66;79.51
72465;BME280;60471;52.150;4.508;2022-09-09T09:26:01;100320.63;;;16.31;81.58
72465;BME280;60471;52.150;4.508;2022-09-09T09:28:30;100327.03;;;16.28;82.94
72465;BME280;60471;52.150;4.508;2022-09-09T09:31:11;100315.00;;;16.45;82.26
72465;BME280;60471;52.150;4.508;2022-09-09T09:33:49;100313.69;;;16.50;82.44
72465;BME280;60471;52.150;4.508;2022-09-09T09:36:20;100302.53;;;16.45;83.07
72465;BME280;60471;52.150;4.508;2022-09-09T09:39:27;100305.47;;;16.42;82.42
72465;BME280;60471;52.150;4.508;2022-09-09T09:41:56;100308.56;;;16.59;82.11
72465;BME280;60471;52.150;4.508;2022-09-09T09:44:25;100291.34;;;16.85;81.55
72465;BME280;60471;52.150;4.508;2022-09-09T09:47:05;100292.47;;;17.24;79.34
72465;BME280;60471;52.150;4.508;2022-09-09T09:49:33;100296.53;;;17.39;79.00
72465;BME280;60471;52.150;4.508;2022-09-09T09:52:01;100297.03;;;17.33;79.15
72465;BME280;60471;52.150;4.508;2022-09-09T09:54:31;100294.69;;;17.19;79.43
72465;BME280;60471;52.150;4.508;2022-09-09T09:57:11;100294.91;;;17.27;79.35
72465;BME280;60471;52.150;4.508;2022-09-09T09:59:41;100300.59;;;17.23;79.07
72465;BME280;60471;52.150;4.508;2022-09-09T10:02:24;100297.00;;;17.13;79.77
72465;BME280;60471;52.150;4.508;2022-09-09T10:05:12;100298.19;;;17.20;79.66
72465;BME280;60471;52.150;4.508;2022-09-09T10:07:39;100291.50;;;17.25;79.22
72465;BME280;60471;52.150;4.508;2022-09-09T10:10:11;100300.38;;;17.26;79.67
72465;BME280;60471;52.150;4.508;2022-09-09T10:16:02;100294.38;;;17.75;77.71
72465;BME280;60471;52.150;4.508;2022-09-09T10:27:12;100294.88;;;17.06;80.74
72465;BME280;60471;52.150;4.508;2022-09-09T10:30:17;100292.41;;;16.94;81.94
72465;BME280;60471;52.150;4.508;2022-09-09T10:33:10;100290.63;;;16.83;81.23
72465;BME280;60471;52.150;4.508;2022-09-09T10:35:57;100298.56;;;16.94;81.73
72465;BME280;60471;52.150;4.508;2022-09-09T10:41:15;100302.13;;;16.84;82.36
72465;BME280;60471;52.150;4.508;2022-09-09T10:46:54;100294.44;;;16.90;82.60
72465;BME280;60471;52.150;4.508;2022-09-09T10:56:16;100296.97;;;17.24;81.26
72465;BME280;60471;52.150;4.508;2022-09-09T11:01:22;100292.88;;;17.82;77.68
72465;BME280;60471;52.150;4.508;2022-09-09T11:03:56;100285.75;;;17.92;77.30
72465;BME280;60471;52.150;4.508;2022-09-09T11:06:34;100289.38;;;18.72;75.01
72465;BME280;60471;52.150;4.508;2022-09-09T11:09:14;100286.56;;;18.23;76.16
72465;BME280;60471;52.150;4.508;2022-09-09T11:11:57;100280.59;;;18.10;75.85
72465;BME280;60471;52.150;4.508;2022-09-09T11:14:45;100288.66;;;18.20;75.65
72465;BME280;60471;52.150;4.508;2022-09-09T11:17:19;100294.09;;;18.09;76.03
72465;BME280;60471;52.150;4.508;2022-09-09T11:19:48;100279.75;;;18.60;74.64
72465;BME280;60471;52.150;4.508;2022-09-09T11:25:16;100279.69;;;18.31;74.97
72465;BME280;60471;52.150;4.508;2022-09-09T11:33:55;100294.75;;;17.91;77.10
72465;BME280;60471;52.150;4.508;2022-09-09T11:36:42;100295.34;;;17.74;77.52
72465;BME280;60471;52.150;4.508;2022-09-09T11:44:37;100284.22;;;17.69;77.44
72465;BME280;60471;52.150;4.508;2022-09-09T11:47:17;100287.66;;;17.60;80.14
72465;BME280;60471;52.150;4.508;2022-09-09T11:52:42;100289.03;;;16.80;83.14
72465;BME280;60471;52.150;4.508;2022-09-09T12:00:40;100282.66;;;16.49;86.65
72465;BME280;60471;52.150;4.508;2022-09-09T12:05:58;100301.41;;;16.59;87.60
72465;BME280;60471;52.150;4.508;2022-09-09T12:08:35;100294.22;;;16.82;86.84
72465;BME280;60471;52.150;4.508;2022-09-09T12:11:02;100290.53;;;17.26;84.78
72465;BME280;60471;52.150;4.508;2022-09-09T12:13:30;100293.97;;;17.59;83.20
72465;BME280;60471;52.150;4.508;2022-09-09T12:15:59;100292.72;;;17.63;82.78
72465;BME280;60471;52.150;4.508;2022-09-09T12:18:34;100296.69;;;17.89;81.70
72465;BME280;60471;52.150;4.508;2022-09-09T12:26:47;100290.78;;;17.86;80.49
72465;BME280;60471;52.150;4.508;2022-09-09T12:32:26;100300.59;;;17.64;80.22
72465;BME280;60471;52.150;4.508;2022-09-09T12:35:07;100306.16;;;17.52;81.25
72465;BME280;60471;52.150;4.508;2022-09-09T12:37:59;100297.03;;;17.54;82.97
72465;BME280;60471;52.150;4.508;2022-09-09T12:40:32;100307.25;;;17.49;82.37
72465;BME280;60471;52.150;4.508;2022-09-09T12:43:19;100302.97;;;17.37;82.95
72465;BME280;60471;52.150;4.508;2022-09-09T12:45:50;100304.00;;;17.46;83.08
72465;BME280;60471;52.150;4.508;2022-09-09T12:48:29;100307.84;;;17.53;82.30
72465;BME280;60471;52.150;4.508;2022-09-09T12:50:59;100311.84;;;17.47;82.33
72465;BME280;60471;52.150;4.508;2022-09-09T12:53:32;100314.72;;;17.55;81.63
72465;BME280;60471;52.150;4.508;2022-09-09T12:56:06;100312.06;;;17.55;82.44
72465;BME280;60471;52.150;4.508;2022-09-09T12:58:37;100319.00;;;17.67;81.41
72465;BME280;60471;52.150;4.508;2022-09-09T13:01:05;100300.03;;;17.82;80.94
72465;BME280;60471;52.150;4.508;2022-09-09T13:03:33;100314.75;;;17.76;80.07
72465;BME280;60471;52.150;4.508;2022-09-09T13:06:16;100314.47;;;17.79;80.67
72465;BME280;60471;52.150;4.508;2022-09-09T13:08:50;100316.34;;;17.67;80.18
72465;BME280;60471;52.150;4.508;2022-09-09T13:11:21;100304.06;;;17.76;80.38
72465;BME280;60471;52.150;4.508;2022-09-09T13:13:55;100307.69;;;17.96;80.00
72465;BME280;60471;52.150;4.508;2022-09-09T13:16:28;100311.84;;;17.89;80.18
72465;BME280;60471;52.150;4.508;2022-09-09T13:19:00;100312.88;;;17.98;79.59
72465;BME280;60471;52.150;4.508;2022-09-09T13:21:34;100289.75;;;18.08;80.36
72465;BME280;60471;52.150;4.508;2022-09-09T13:24:57;100316.34;;;18.19;79.80
72465;BME280;60471;52.150;4.508;2022-09-09T13:26:58;100318.63;;;18.23;78.73
72465;BME280;60471;52.150;4.508;2022-09-09T13:29:28;100316.16;;;18.11;79.71
72465;BME280;60471;52.150;4.508;2022-09-09T13:32:07;100327.06;;;18.29;79.79
72465;BME280;60471;52.150;4.508;2022-09-09T13:34:54;100317.50;;;18.26;79.58
72465;BME280;60471;52.150;4.508;2022-09-09T13:37:36;100324.63;;;18.16;78.68
72465;BME280;60471;52.150;4.508;2022-09-09T13:40:19;100318.22;;;17.98;80.93
72465;BME280;60471;52.150;4.508;2022-09-09T13:42:50;100322.31;;;18.02;81.67
72465;BME280;60471;52.150;4.508;2022-09-09T13:45:22;100316.75;;;17.84;82.62
72465;BME280;60471;52.150;4.508;2022-09-09T13:47:53;100319.56;;;17.82;82.64
72465;BME280;60471;52.150;4.508;2022-09-09T13:50:23;100317.47;;;17.65;83.02
72465;BME280;60471;52.150;4.508;2022-09-09T13:52:56;100312.06;;;17.55;83.33
72465;BME280;60471;52.150;4.508;2022-09-09T13:55:26;100319.69;;;17.60;82.13
72465;BME280;60471;52.150;4.508;2022-09-09T13:57:56;100312.59;;;17.49;83.02
72465;BME280;60471;52.150;4.508;2022-09-09T14:00:28;100321.66;;;17.37;84.47
72465;BME280;60471;52.150;4.508;2022-09-09T14:02:55;100322.91;;;17.22;83.45
72465;BME280;60471;52.150;4.508;2022-09-09T14:05:22;100323.09;;;17.09;82.00
72465;BME280;60471;52.150;4.508;2022-09-09T14:07:49;100319.25;;;17.02;80.37
72465;BME280;60471;52.150;4.508;2022-09-09T14:10:15;100330.84;;;16.69;81.47
72465;BME280;60471;52.150;4.508;2022-09-09T14:12:42;100323.09;;;16.66;81.97
72465;BME280;60471;52.150;4.508;2022-09-09T14:15:09;100329.28;;;16.55;81.93
72465;BME280;60471;52.150;4.508;2022-09-09T14:17:37;100328.81;;;16.61;83.20
72465;BME280;60471;52.150;4.508;2022-09-09T14:20:04;100327.69;;;16.64;82.33
72465;BME280;60471;52.150;4.508;2022-09-09T14:22:35;100324.91;;;16.65;83.37
72465;BME280;60471;52.150;4.508;2022-09-09T14:25:02;100342.59;;;16.77;82.92
72465;BME280;60471;52.150;4.508;2022-09-09T14:27:30;100357.34;;;16.81;82.99
72465;BME280;60471;52.150;4.508;2022-09-09T14:29:56;100340.06;;;17.08;82.49
72465;BME280;60471;52.150;4.508;2022-09-09T14:32:23;100331.34;;;17.59;80.72
72465;BME280;60471;52.150;4.508;2022-09-09T14:34:49;100322.31;;;18.82;77.27
72465;BME280;60471;52.150;4.508;2022-09-09T14:37:16;100324.44;;;20.03;71.49
72465;BME280;60471;52.150;4.508;2022-09-09T14:39:43;100317.53;;;20.00;71.71
72465;BME280;60471;52.150;4.508;2022-09-09T14:42:10;100332.22;;;20.61;68.82
72465;BME280;60471;52.150;4.508;2022-09-09T14:44:37;100319.75;;;21.23;67.38
72465;BME280;60471;52.150;4.508;2022-09-09T14:47:07;100326.97;;;22.10;65.23
72465;BME280;60471;52.150;4.508;2022-09-09T14:49:35;100337.41;;;21.43;66.80
72465;BME280;60471;52.150;4.508;2022-09-09T14:52:01;100331.34;;;22.11;66.54
72465;BME280;60471;52.150;4.508;2022-09-09T14:54:28;100321.97;;;22.23;65.94
72465;BME280;60471;52.150;4.508;2022-09-09T14:56:55;100331.78;;;24.05;58.68
72465;BME280;60471;52.150;4.508;2022-09-09T14:59:22;100329.13;;;22.91;61.71
72465;BME280;60471;52.150;4.508;2022-09-09T15:01:49;100331.19;;;21.25;67.22